Terminal Aerodrome Forecast
Issued by NWS

Home | Current Version | Previous Version | Text Only | Print | Product List | Glossary On
Versions: 1 2 3 4 5 6 7 8 9 10 11 12 13 14 15 16
000
FTUS42 KMLB 290500 RRA
TAFLEE
TAF
KLEE 290542Z 2906/3006 23006KT P6SM FEW025 BKN250
     FM291100 26008KT P6SM VCSH SCT025 BKN250
     FM291500 28010KT P6SM VCTS SCT035CB SCT080 BKN250
     FM300000 24007KT P6SM SCT040 BKN250=

USA.gov is the U.S. government's official web portal to all federal, state and local government web resources and services.